Newburgh, Maine
Current Conditions -  °F | °C
As of 10:53 AM on Wednesday 22 Oct 2014 (Local Time) from KBGR Reporting Station
Broken Clouds Broken Clouds  
Wind Chill: 42°   Ceiling: 5000
Heat Index: 49°   Visibility: 10mi
Dew Point: 44°   Wind: 18mph
Humidity: 83%   Direction: 30°NNE
Pressure: 30.21"   Gusts: 24mph
Location:  44.7323°N, 68.9137°W
Report Text: KBGR 221453Z 03016G21KT 10SM SCT016 BKN050 BKN070 09/07 A3021 RMK AO2 RAE46 SLP229 P0001 60004 T00940067 58004
Loading
Personal Weather Stations






























Interactive Weather Map
Tropical Storm Tracking
New forecast layout! Learn more

10-Day Weather Forecast

Advertisements
Track Severe Weather on mobile